WetterOnline ( https://www.wetteronline.de )

Wetter aktuell Heuweiler

Aktuelles Wetter: Freiburg/Flugplatz (236m)

6-stündlich | Neueste Meldungen
Ortszeit Temperatur Wetter
Mo, 30.11. 7:00 -5.7° C wolkenlos
Mo, 30.11. 1:00 -3.4° C bedeckt
So, 29.11. 19:00 -0.4° C leicht bewölkt
So, 29.11. 13:00 3.3° C leicht bewölkt
So, 29.11. 7:00 0.8° C bedeckt
So, 29.11. 1:00 0.6° C Nebel
Sa, 28.11. 19:00 0.4° C bedeckt
Sa, 28.11. 13:00 1.2° C bedeckt
Ortszeit Temperatur Wetter
Mo, 30.11. 9:30 -3.0° C leicht bewölkt
Mo, 30.11. 9:20 -3.0° C leicht bewölkt
Mo, 30.11. 9:10 -3.5° C leicht bewölkt
Mo, 30.11. 9:00 -3.7° C bedeckt
Mo, 30.11. 8:50 -3.7° C bedeckt
Mo, 30.11. 8:40 -3.4° C bedeckt
Mo, 30.11. 8:30 -4.3° C bedeckt
Mo, 30.11. 8:00 -4.5° C bedeckt
Mo, 30.11. 7:30 -5.2° C wolkig
Mo, 30.11. 7:00 -5.7° C wolkenlos
Mo, 30.11. 6:30 -5.9° C wolkenlos
Ortszeit Relative Feuchte Sichtweite
Mo, 30.11. 7:00 93% 8 km
Mo, 30.11. 1:00 93% 8 km
So, 29.11. 19:00 90% 10 km
So, 29.11. 13:00 76% 15 km
So, 29.11. 7:00 90% 11 km
So, 29.11. 1:00 99% 0.4 km
Sa, 28.11. 19:00 99% 1.9 km
Sa, 28.11. 13:00 96% 4.8 km
Ortszeit Relative Feuchte Sichtweite
Mo, 30.11. 9:30 89% 10 km
Mo, 30.11. 9:20 89% -
Mo, 30.11. 9:10 89% -
Mo, 30.11. 9:00 89% 10 km
Mo, 30.11. 8:50 89% -
Mo, 30.11. 8:40 89% -
Mo, 30.11. 8:30 91% 8 km
Mo, 30.11. 8:00 91% 8 km
Mo, 30.11. 7:30 93% 7 km
Mo, 30.11. 7:00 93% 8 km
Mo, 30.11. 6:30 92% 8 km
Ortszeit Niederschlagsmenge Niederschlagsart
Mo, 30.11. 7:00 0.0 l/m2 in 12 Std. -
Mo, 30.11. 1:00 0.0 l/m2 in 6 Std. -
So, 29.11. 19:00 0.0 l/m2 in 12 Std. -
So, 29.11. 13:00 0.0 l/m2 in 6 Std. -
So, 29.11. 7:00 0.0 l/m2 in 12 Std. -
So, 29.11. 1:00 0.0 l/m2 in 6 Std. -
Sa, 28.11. 19:00 0.0 l/m2 in 12 Std. -
Sa, 28.11. 13:00 0.0 l/m2 in 6 Std. -
Ortszeit Niederschlagsmenge Niederschlagsart
Mo, 30.11. 9:30 0.0 l/m2 in 1 Std. -
Mo, 30.11. 9:20 keine Meldung -
Mo, 30.11. 9:10 keine Meldung -
Mo, 30.11. 9:00 0.0 l/m2 in 1 Std. -
Mo, 30.11. 8:50 keine Meldung -
Mo, 30.11. 8:40 keine Meldung -
Mo, 30.11. 8:30 0.0 l/m2 in 1 Std. -
Mo, 30.11. 8:00 0.0 l/m2 in 1 Std. -
Mo, 30.11. 7:30 0.0 l/m2 in 1 Std. -
Mo, 30.11. 7:00 0.0 l/m2 in 1 Std. -
Mo, 30.11. 6:30 0.0 l/m2 in 1 Std. -
Ortszeit Stärke Spitze Richtung
km/h Bft. km/h Grad Sektor
Mo, 30.11. 7:00 4 1 7 280° W
Mo, 30.11. 1:00 2 1 13 10° N
So, 29.11. 19:00 4 1 11 230° SW
So, 29.11. 13:00 4 1 11 280° W
So, 29.11. 7:00 4 1 11 60° NO
So, 29.11. 1:00 6 1 11 290° W
Sa, 28.11. 19:00 7 2 14 300° NW
Sa, 28.11. 13:00 4 1 11 90° O
Ortszeit Stärke Spitze Richtung
km/h Bft. km/h Grad Sektor
Mo, 30.11. 9:30 4 1 7 320° NW
Mo, 30.11. 9:20 4 1 - 320° NW
Mo, 30.11. 9:10 4 1 - 300° NW
Mo, 30.11. 9:00 2 1 6 340° N
Mo, 30.11. 8:50 2 1 - 340° N
Mo, 30.11. 8:40 2 1 - 350° N
Mo, 30.11. 8:30 4 1 7 310° NW
Mo, 30.11. 8:00 4 1 7 200° S
Mo, 30.11. 7:30 4 1 7 350° N
Mo, 30.11. 7:00 4 1 7 280° W
Mo, 30.11. 6:30 4 1 7 350° N
Ortszeit Untergrenze Bedeckung Gattung
total tief tief mittel hoch
Mo, 30.11. 7:00 - 0/8 0/8 - - -
Mo, 30.11. 1:00 690 m 8/8 8/8 - - -
So, 29.11. 19:00 810 m 4/8 4/8 - - -
So, 29.11. 13:00 330 m 2/8 2/8 - - -
So, 29.11. 7:00 180 m 8/8 8/8 - - -
So, 29.11. 1:00 30 m 8/8 8/8 - - -
Sa, 28.11. 19:00 60 m 8/8 8/8 - - -
Sa, 28.11. 13:00 90 m 8/8 8/8 - - -
Ortszeit Bedeckungsgrad in Achtel und Wolkenuntergrenze
Mo, 30.11. 9:30 3(630m)
Mo, 30.11. 9:20 3(630m)
Mo, 30.11. 9:10 2(600m)
Mo, 30.11. 9:00 8(630m)
Mo, 30.11. 8:50 8(630m)
Mo, 30.11. 8:40 8(630m)
Mo, 30.11. 8:30 8(630m)
Mo, 30.11. 8:00 8(630m)
Mo, 30.11. 7:30 5(660m)
Mo, 30.11. 7:00 keine Wolken
Mo, 30.11. 6:30 keine Wolken
Ortszeit Luftdruck NN (hPa) Tendenz (hPa in 3 Std.)
Mo, 30.11. 7:00 1028 + 0,6
Mo, 30.11. 1:00 1027 + 0,4
So, 29.11. 19:00 1025 + 1,3
So, 29.11. 13:00 1023 - 0,1
So, 29.11. 7:00 1022 + 0,9
So, 29.11. 1:00 1021 + 0,6
Sa, 28.11. 19:00 1020 + 0,4
Sa, 28.11. 13:00 1020 - 1,0
Ortszeit Luftdruck NN (hPa) Tendenz (hPa in 3 Std.)
Mo, 30.11. 9:30 1029 + 1,5
Mo, 30.11. 9:20 1029 keine Meldung
Mo, 30.11. 9:10 1029 keine Meldung
Mo, 30.11. 9:00 1029 + 1,2
Mo, 30.11. 8:50 1029 keine Meldung
Mo, 30.11. 8:40 1029 keine Meldung
Mo, 30.11. 8:30 1029 + 1,2
Mo, 30.11. 8:00 1029 + 0,8
Mo, 30.11. 7:30 1029 + 0,8
Mo, 30.11. 7:00 1028 + 0,6
Mo, 30.11. 6:30 1028 + 0,3
Ortszeit Schneehöhe (cm)
Mo, 30.11. 7:00 0
Mo, 30.11. 1:00 0
So, 29.11. 19:00 0
So, 29.11. 13:00 0
So, 29.11. 7:00 0
So, 29.11. 1:00 0
Sa, 28.11. 19:00 0
Sa, 28.11. 13:00 0
Ortszeit Schneehöhe (cm)
Mo, 30.11. 9:30 0
Mo, 30.11. 9:20 0
Mo, 30.11. 9:10 0
Mo, 30.11. 9:00 0
Mo, 30.11. 8:50 0
Mo, 30.11. 8:40 0
Mo, 30.11. 8:30 0
Mo, 30.11. 8:00 0
Mo, 30.11. 7:30 0
Mo, 30.11. 7:00 0
Mo, 30.11. 6:30 0
Link zu dieser Seite / Seite empfehlen

Das Wetter in ...